• Join FlightAware (Why Join?)
  • Login
  • US Flag 
05:14AM EDT


 

Airport Tracker/Info


-or-


 

Live Flight TrackerFlight Track Log ✈ LXJ262 ✈ 22-Apr-2013 ✈ KYIP - KMGW

Flight Track Log - Related Links

Times and Time Zones

All times are in EDT time to prevent confusion due to time zone crossing. See the LXJ262 flight status page for this flight to view local times or setup timezone preferences in your user account.

Time Position Orientation Groundspeed Altitude Reporting Facility
EDT Latitude Longitude Course Direction KTS MPH feet Rate Location/Type
12:18PM 42.2303 -83.5417 238° Southwest 175 201 1,300  Level Cleveland Center
12:19PM 42.1950 -83.6186 238° Southwest 197 227 4,600 3,600 Climbing Cleveland Center
12:20PM 42.2350 -83.6794 312° West 242 278 9,500 3,900 Climbing Cleveland Center
12:22PM 42.2964 -83.6514 19° North 262 302 12,800 3,120 Climbing Cleveland Center
12:23PM 42.2994 -83.5308 88° East 248 285 16,000 3,480 Climbing Cleveland Center
12:24PM 42.2714 -83.4033 107° East 289 333 19,800 3,600 Climbing Cleveland Center
12:26PM 42.2156 -83.1147 105° East 377 434 26,800 3,060 Climbing Cleveland Center
12:27PM 42.1814 -82.9508 106° East 416 479 29,000 1,080 Climbing Cleveland Center
12:28PM 42.1494 -82.7817 104° East 446 513 29,000  Level Cleveland Center
12:29PM 42.1150 -82.6125 105° East 461 531 29,000  Level Cleveland Center
12:30PM 42.0803 -82.4464 106° East 466 536 29,000  Level Cleveland Center
12:31PM 42.0558 -82.2722 101° East 461 531 29,000  Level Cleveland Center
12:32PM 42.0269 -82.1039 103° East 461 531 29,000  Level Cleveland Center
12:33PM 41.9411 -81.9844 134° Southeast 432 497 29,000  Level Cleveland Center
12:34PM 41.8336 -81.8872 146° Southeast 439 505 29,000  Level Cleveland Center
12:35PM 41.7264 -81.7850 145° Southeast 451 519 29,000  Level Cleveland Center
12:36PM 41.6231 -81.6886 145° Southeast 463 533 29,000  Level Cleveland Center
12:37PM 41.5156 -81.5897 145° Southeast 463 533 29,000  Level Cleveland Center
12:38PM 41.4225 -81.5053 146° Southeast 463 533 29,000  Level Cleveland Center
12:39PM 41.3169 -81.4042 144° Southeast 458 527 29,000  Level Cleveland Center
12:40PM 41.2092 -81.3089 146° Southeast 463 533 29,000 -60 Level Cleveland Center
12:41PM 41.0931 -81.2058 146° Southeast 463 533 28,900 -1,020 Descending Cleveland Center
12:42PM 40.9872 -81.1086 145° Southeast 463 533 27,000 -1,860 Descending Cleveland Center
12:43PM 40.8961 -81.0200 144° Southeast 463 533 25,200 -1,920 Descending Cleveland Center
12:44PM 40.7919 -80.9286 146° Southeast 458 527 23,200 -2,040 Descending Cleveland Center
12:45PM 40.6922 -80.8350 145° Southeast 458 527 21,200 -2,040 Descending Cleveland Center
12:46PM 40.5925 -80.7472 146° Southeast 446 513 19,200 -1,800 Descending Cleveland Center
12:47PM 40.4944 -80.6622 147° Southeast 435 501 17,600 -1,800 Descending Cleveland Center
12:48PM 40.4008 -80.5778 146° Southeast 420 483 15,600 -1,320 Descending Cleveland Center
12:49PM 40.3089 -80.4958 146° Southeast 406 467 15,000 -300 Descending Cleveland Center
12:50PM 40.2131 -80.4092 145° Southeast 390 449 15,000 -60 Level Cleveland Center
12:51PM 40.1272 -80.3361 147° Southeast 385 443 14,900 -900 Descending Cleveland Center
12:52PM 40.0500 -80.2658 145° Southeast 379 436 13,200 -2,100 Descending Cleveland Center
12:53PM 39.9853 -80.2092 146° Southeast 334 384 10,800 -2,460 Descending Cleveland Center
12:54PM 39.9247 -80.1553 146° Southeast 284 327 8,300 -2,460 Descending Cleveland Center
12:55PM 39.8703 -80.1097 147° Southeast 252 290 5,900 -2,280 Descending Cleveland Center
12:56PM 39.8200 -80.0669 147° Southeast 231 266 3,800 -1,440 Descending Cleveland Center
12:57PM 39.7719 -80.0239 145° Southeast 218 251 3,100 -360 Descending Cleveland Center
12:58PM 39.7342 -79.9731 134° Southeast 208 239 3,100 -360 Level Cleveland Center
12:59PM 39.7025 -79.9300 134° Southeast 182 209 2,400 -720 Descending Cleveland Center
01:00PM 39.6692 -79.9197 167° South 160 184 1,700 -720 Descending Cleveland Center